Time;durP1;ratioP1;P1;durP2;ratioP2;P2;SDS_P1;SDS_P2;PMS_P1;PMS_P2;Temp;Humidity;BMP_temperature;BMP_pressure;BME280_temperature;BME280_humidity;BME280_pressure;Samples;Min_cycle;Max_cycle;Signal;HPM_P1;HPM_P2
2022/08/13 00:02:00;;;;;;;7.25;3.85;;;;;;;;;;6180026;23;20029;-53
2022/08/13 00:04:59;;;;;;;4.53;3.25;;;;;;;;;;6180122;23;20021;-53
2022/08/13 00:07:46;;;;;;;4.72;3.20;;;;;;;;;;6157622;23;20060;-52
2022/08/13 00:10:32;;;;;;;6.13;3.67;;;;;;;;;;6180044;23;20025;-61
2022/08/13 00:13:13;;;;;;;5.88;3.30;;;;;;;;;;6156023;23;20079;-60
2022/08/13 00:15:47;;;;;;;6.68;3.13;;;;;;;;;;6179762;23;20028;-60
2022/08/13 00:18:23;;;;;;;6.15;3.70;;;;;;;;;;6180142;23;20467;-60
2022/08/13 00:20:58;;;;;;;9.05;3.65;;;;;;;;;;6180252;23;20036;-61
2022/08/13 00:23:28;;;;;;;4.68;3.13;;;;;;;;;;6179400;23;20205;-60
2022/08/13 00:26:15;;;;;;;6.13;3.67;;;;;;;;;;6179679;23;20025;-64
2022/08/13 00:29:01;;;;;;;5.38;3.70;;;;;;;;;;6178150;23;20021;-65
2022/08/13 00:31:31;;;;;;;4.32;3.53;;;;;;;;;;6180125;23;20025;-62
2022/08/13 00:34:05;;;;;;;7.65;3.50;;;;;;;;;;6178590;23;20028;-61
2022/08/13 00:36:35;;;;;;;4.38;3.38;;;;;;;;;;6179741;23;20021;-61
2022/08/13 00:39:05;;;;;;;5.40;3.53;;;;;;;;;;6177739;23;20470;-60
2022/08/13 00:41:42;;;;;;;;;;;;;;;;;;6181023;23;20029;-61
2022/08/13 00:44:31;;;;;;;5.03;3.70;;;;;;;;;;6179099;23;19924;-61
2022/08/13 00:50:17;;;;;;;8.98;3.70;;;;;;;;;;6178367;23;19920;-46
2022/08/13 00:53:17;;;;;;;4.80;3.63;;;;;;;;;;6177973;23;20092;-45
2022/08/13 00:55:52;;;;;;;6.22;4.20;;;;;;;;;;6179196;23;20021;-49
2022/08/13 00:58:34;;;;;;;6.53;3.83;;;;;;;;;;6180128;23;20024;-46
2022/08/13 01:01:11;;;;;;;9.13;3.47;;;;;;;;;;6178967;23;20028;-42
2022/08/13 01:04:03;;;;;;;6.15;3.83;;;;;;;;;;6179565;23;20021;-44
2022/08/13 01:06:37;;;;;;;8.52;3.83;;;;;;;;;;6180053;23;20025;-62
2022/08/13 01:09:18;;;;;;;7.40;4.35;;;;;;;;;;6180305;23;20091;-62
2022/08/13 01:12:07;;;;;;;8.50;4.18;;;;;;;;;;6178703;23;20068;-62
2022/08/13 01:14:44;;;;;;;5.63;4.10;;;;;;;;;;6179155;23;20033;-62
2022/08/13 01:17:16;;;;;;;6.75;3.33;;;;;;;;;;6179063;23;20036;-62
2022/08/13 01:20:06;;;;;;;5.70;3.85;;;;;;;;;;6178502;23;20032;-62
2022/08/13 06:37:17;;;;;;;6.18;3.95;;;;;;;;;;6089074;23;20390;-54
2022/08/13 06:40:06;;;;;;;5.82;4.00;;;;;;;;;;6091425;23;20345;-57
2022/08/13 06:42:53;;;;;;;7.85;3.65;;;;;;;;;;6091581;23;20608;-54
2022/08/13 06:45:29;;;;;;;7.45;3.90;;;;;;;;;;6091393;23;20073;-57
2022/08/13 06:48:00;;;;;;;6.15;4.10;;;;;;;;;;6092180;23;20047;-56
2022/08/13 06:50:43;;;;;;;9.05;4.35;;;;;;;;;;6092228;23;20057;-54
2022/08/13 06:53:12;;;;;;;9.15;4.30;;;;;;;;;;6092153;23;20074;-64
2022/08/13 06:56:07;;;;;;;10.63;3.92;;;;;;;;;;6088923;23;20543;-52
2022/08/13 06:58:58;;;;;;;6.75;4.10;;;;;;;;;;6091829;23;20093;-51
2022/08/13 07:01:43;;;;;;;9.63;3.90;;;;;;;;;;6091287;23;20764;-52
2022/08/13 07:04:30;;;;;;;5.00;3.53;;;;;;;;;;6091261;23;20053;-56
2022/08/13 07:07:04;;;;;;;8.25;3.58;;;;;;;;;;6091663;23;20034;-56
2022/08/13 07:09:32;;;;;;;6.53;3.67;;;;;;;;;;6091711;23;20477;-56
2022/08/13 07:12:08;;;;;;;6.18;3.20;;;;;;;;;;6093512;23;20027;-64
2022/08/13 07:14:43;;;;;;;8.20;3.30;;;;;;;;;;6091143;23;20026;-60
2022/08/13 07:17:27;;;;;;;8.80;3.90;;;;;;;;;;6092418;23;20026;-60
2022/08/13 07:20:03;;;;;;;5.82;3.72;;;;;;;;;;6092307;23;20061;-60
2022/08/13 07:22:34;;;;;;;7.28;3.30;;;;;;;;;;6092509;23;20040;-60
2022/08/13 07:25:31;;;;;;;9.57;3.30;;;;;;;;;;6090678;23;20098;-61
2022/08/13 07:28:19;;;;;;;9.68;3.00;;;;;;;;;;6090987;23;20018;-61
2022/08/13 07:31:16;;;;;;;8.30;3.00;;;;;;;;;;6091096;23;20480;-45
2022/08/13 07:33:51;;;;;;;4.50;2.60;;;;;;;;;;6091592;23;20061;-65
2022/08/13 07:36:28;;;;;;;3.72;2.70;;;;;;;;;;6091868;23;20054;-66
2022/08/13 07:39:09;;;;;;;5.28;3.10;;;;;;;;;;6117947;23;20550;-66
2022/08/13 07:41:49;;;;;;;13.93;3.70;;;;;;;;;;6116620;23;20013;-66
2022/08/13 07:44:30;;;;;;;6.00;2.83;;;;;;;;;;6122119;23;20056;-66
2022/08/13 07:47:25;;;;;;;5.35;2.75;;;;;;;;;;6121449;23;20152;-65
2022/08/13 07:50:01;;;;;;;9.85;3.10;;;;;;;;;;6122002;23;20022;-53
2022/08/13 07:52:37;;;;;;;4.55;2.33;;;;;;;;;;6121582;23;20036;-59
2022/08/13 07:55:04;;;;;;;;;;;;;;;;;;6121210;23;20073;-59
2022/08/13 07:57:46;;;;;;;6.00;2.70;;;;;;;;;;6122302;23;19917;-59
2022/08/13 08:00:29;;;;;;;5.07;2.40;;;;;;;;;;6121903;23;20038;-58
2022/08/13 08:02:57;;;;;;;11.50;2.92;;;;;;;;;;6120173;23;20101;-58
2022/08/13 08:05:34;;;;;;;5.10;2.50;;;;;;;;;;6120953;23;20025;-60
2022/08/13 08:08:14;;;;;;;6.40;2.90;;;;;;;;;;6121459;23;20061;-52
2022/08/13 08:10:54;;;;;;;5.72;2.63;;;;;;;;;;6121330;23;20060;-59
2022/08/13 08:13:24;;;;;;;6.65;2.20;;;;;;;;;;6121537;23;20032;-46
2022/08/13 08:16:06;;;;;;;5.38;2.35;;;;;;;;;;6094761;23;20030;-45
2022/08/13 08:18:33;;;;;;;5.68;2.40;;;;;;;;;;6122035;23;20060;-46
2022/08/13 08:21:28;;;;;;;5.93;2.47;;;;;;;;;;6121495;23;20116;-47
2022/08/13 08:24:16;;;;;;;4.23;2.50;;;;;;;;;;6120554;23;20113;-49
2022/08/13 08:27:00;;;;;;;5.28;2.47;;;;;;;;;;6121193;23;20021;-60
2022/08/13 08:29:28;;;;;;;6.82;2.50;;;;;;;;;;6121748;23;20022;-64
2022/08/13 08:32:23;;;;;;;13.85;2.50;;;;;;;;;;6121129;23;20117;-54
2022/08/13 08:35:03;;;;;;;6.10;2.60;;;;;;;;;;6120980;23;20126;-52
2022/08/13 08:43:28;;;;;;;3.85;2.20;;;;;;;;;;6091583;23;20057;-56
2022/08/13 08:46:14;;;;;;;6.50;2.13;;;;;;;;;;6091047;23;20468;-62
2022/08/13 08:48:50;;;;;;;7.78;2.58;;;;;;;;;;6091428;23;20401;-59
2022/08/13 08:51:22;;;;;;;4.20;2.20;;;;;;;;;;6091374;23;20034;-45
2022/08/13 08:54:04;;;;;;;4.18;2.10;;;;;;;;;;6092608;23;20023;-47
2022/08/13 08:56:54;;;;;;;4.57;2.20;;;;;;;;;;6092094;23;20101;-48
2022/08/13 08:59:35;;;;;;;6.97;2.13;;;;;;;;;;6093453;23;20033;-48
2022/08/13 09:02:24;;;;;;;2.63;2.33;;;;;;;;;;6092881;23;20730;-48
2022/08/13 09:05:02;;;;;;;3.53;2.13;;;;;;;;;;6092259;23;20057;-53
2022/08/13 09:07:46;;;;;;;6.13;2.22;;;;;;;;;;6092925;23;20037;-62
2022/08/13 09:10:23;;;;;;;7.07;2.10;;;;;;;;;;6090863;23;20093;-62
2022/08/13 09:12:57;;;;;;;2.95;2.08;;;;;;;;;;6090546;23;20058;-62
2022/08/13 09:15:39;;;;;;;5.13;2.17;;;;;;;;;;6090333;23;20423;-62
2022/08/13 09:18:13;;;;;;;7.15;2.58;;;;;;;;;;6092896;23;20105;-62
2022/08/13 09:20:58;;;;;;;4.28;2.35;;;;;;;;;;6092795;23;20421;-61
2022/08/13 09:23:32;;;;;;;3.40;2.20;;;;;;;;;;6092213;23;20026;-62
2022/08/13 09:26:26;;;;;;;5.45;2.13;;;;;;;;;;6091554;23;20105;-45
2022/08/13 09:28:57;;;;;;;8.73;2.60;;;;;;;;;;6091027;23;20029;-61
2022/08/13 09:31:31;;;;;;;4.35;1.98;;;;;;;;;;6089204;23;20030;-62
2022/08/13 09:34:19;;;;;;;8.05;2.50;;;;;;;;;;6090972;23;20022;-62
2022/08/13 09:37:02;;;;;;;5.00;2.40;;;;;;;;;;6090770;23;20026;-61
2022/08/13 09:39:38;;;;;;;6.28;2.30;;;;;;;;;;6121105;23;20026;-62
2022/08/13 09:42:16;;;;;;;6.63;2.20;;;;;;;;;;6120888;23;20884;-62
2022/08/13 09:44:55;;;;;;;4.70;2.42;;;;;;;;;;6121023;23;20029;-52
2022/08/13 09:47:29;;;;;;;5.88;2.30;;;;;;;;;;6120501;23;20522;-49
2022/08/13 09:50:17;;;;;;;8.93;2.72;;;;;;;;;;6099721;23;20018;-44
2022/08/13 09:52:56;;;;;;;6.50;2.60;;;;;;;;;;6120439;23;20014;-46
2022/08/13 09:55:24;;;;;;;6.43;2.35;;;;;;;;;;6120844;23;20030;-46
2022/08/13 09:58:18;;;;;;;5.85;2.50;;;;;;;;;;6120878;23;20460;-46
2022/08/13 10:01:04;;;;;;;9.88;2.40;;;;;;;;;;6120282;23;20117;-46
2022/08/13 10:03:56;;;;;;;5.90;2.20;;;;;;;;;;6121338;23;20096;-63
2022/08/13 10:06:28;;;;;;;6.22;2.42;;;;;;;;;;6119734;23;20026;-71
2022/08/13 10:09:04;;;;;;;5.82;2.35;;;;;;;;;;6120166;23;20471;-70
2022/08/13 10:11:33;;;;;;;4.65;2.25;;;;;;;;;;6120344;23;20032;-70
2022/08/13 10:14:20;;;;;;;7.75;2.20;;;;;;;;;;6120328;23;20112;-71
2022/08/13 10:16:55;;;;;;;6.70;2.25;;;;;;;;;;6119676;23;20025;-69
2022/08/13 10:19:22;;;;;;;5.53;2.30;;;;;;;;;;6121246;23;20030;-71
2022/08/13 10:21:50;;;;;;;3.40;2.35;;;;;;;;;;6119686;23;20096;-70
2022/08/13 10:24:25;;;;;;;7.10;2.40;;;;;;;;;;6121396;23;20022;-59
2022/08/13 10:26:52;;;;;;;3.28;2.42;;;;;;;;;;6119851;23;20104;-59
2022/08/13 10:29:21;;;;;;;6.88;2.13;;;;;;;;;;6121097;23;20077;-59
2022/08/13 10:32:15;;;;;;;5.80;2.00;;;;;;;;;;6120441;23;20022;-59
2022/08/13 10:34:46;;;;;;;6.15;2.10;;;;;;;;;;6120513;23;20033;-59
2022/08/13 10:37:30;;;;;;;6.80;2.45;;;;;;;;;;6117747;23;20105;-59
2022/08/13 10:39:59;;;;;;;5.05;2.25;;;;;;;;;;6121399;23;20355;-70
2022/08/13 10:42:44;;;;;;;3.13;2.20;;;;;;;;;;6120155;23;20120;-57
2022/08/13 10:45:14;;;;;;;5.95;2.22;;;;;;;;;;6122237;23;20384;-58
2022/08/13 10:47:51;;;;;;;6.15;2.35;;;;;;;;;;6123512;23;20026;-55
2022/08/13 10:50:29;;;;;;;11.00;2.42;;;;;;;;;;6123764;23;20018;-57
2022/08/13 10:53:03;;;;;;;5.78;2.28;;;;;;;;;;6121392;23;20022;-57
2022/08/13 10:55:33;;;;;;;5.18;2.50;;;;;;;;;;6121802;23;20124;-56
2022/08/13 10:58:10;;;;;;;6.50;2.33;;;;;;;;;;6122729;23;20133;-58
2022/08/13 11:01:03;;;;;;;6.72;2.17;;;;;;;;;;6122206;23;20140;-63
2022/08/13 11:03:39;;;;;;;5.70;2.30;;;;;;;;;;6122323;23;20026;-56
2022/08/13 11:06:15;;;;;;;5.83;2.30;;;;;;;;;;6122007;23;20037;-56
2022/08/13 11:08:44;;;;;;;5.07;2.15;;;;;;;;;;6122454;23;20585;-54
2022/08/13 11:11:15;;;;;;;7.18;2.33;;;;;;;;;;6122352;23;20041;-55
2022/08/13 11:14:10;;;;;;;6.75;2.13;;;;;;;;;;6121492;23;20055;-57
2022/08/13 11:19:20;;;;;;;9.38;2.58;;;;;;;;;;6123025;23;20089;-62
2022/08/13 11:21:48;;;;;;;2.42;2.10;;;;;;;;;;6120620;23;20022;-65
2022/08/13 11:24:42;;;;;;;3.95;2.35;;;;;;;;;;6121811;23;20105;-64
2022/08/13 11:27:17;;;;;;;7.18;2.33;;;;;;;;;;6122007;23;20026;-64
2022/08/13 11:30:17;;;;;;;4.45;1.98;;;;;;;;;;6122722;23;20100;-64
2022/08/13 11:32:46;;;;;;;5.80;2.05;;;;;;;;;;6121637;23;20501;-64
2022/08/13 11:35:20;;;;;;;4.45;2.10;;;;;;;;;;6120916;23;20069;-63
2022/08/13 11:38:02;;;;;;;7.03;2.15;;;;;;;;;;6116187;23;20469;-59
2022/08/13 11:40:37;;;;;;;3.58;2.15;;;;;;;;;;6122403;23;20029;-46
2022/08/13 11:43:06;;;;;;;3.33;2.20;;;;;;;;;;6121446;23;20384;-50
2022/08/13 11:45:43;;;;;;;;;;;;;;;;;;6122018;23;20026;-46
2022/08/13 11:48:18;;;;;;;4.30;2.30;;;;;;;;;;6122209;23;19917;-50
2022/08/13 11:51:02;;;;;;;4.38;2.47;;;;;;;;;;6121853;23;20022;-50
2022/08/13 11:53:36;;;;;;;3.53;2.17;;;;;;;;;;6120959;23;20068;-52
2022/08/13 11:56:24;;;;;;;5.30;2.40;;;;;;;;;;6121702;23;20097;-51
2022/08/13 11:58:59;;;;;;;3.83;2.15;;;;;;;;;;6121825;23;20102;-58
2022/08/13 12:01:28;;;;;;;4.25;2.35;;;;;;;;;;6122162;23;20078;-58
2022/08/13 12:04:09;;;;;;;2.40;2.20;;;;;;;;;;6121582;23;20831;-58
2022/08/13 12:06:53;;;;;;;4.78;1.98;;;;;;;;;;6121012;23;20025;-60
2022/08/13 12:09:21;;;;;;;7.15;2.50;;;;;;;;;;6122411;23;20045;-59
2022/08/13 12:12:14;;;;;;;4.45;2.00;;;;;;;;;;6121076;23;20022;-60
2022/08/13 12:14:52;;;;;;;3.95;1.90;;;;;;;;;;6121990;23;20392;-59
2022/08/13 12:17:28;;;;;;;8.70;2.60;;;;;;;;;;6122694;23;20018;-58
2022/08/13 12:20:17;;;;;;;4.00;2.13;;;;;;;;;;6121636;23;20022;-60
2022/08/13 12:22:57;;;;;;;11.43;2.28;;;;;;;;;;6121314;23;20030;-59
2022/08/13 12:25:25;;;;;;;3.85;2.47;;;;;;;;;;6122731;23;20022;-59
2022/08/13 12:28:24;;;;;;;7.35;2.47;;;;;;;;;;6121452;23;20412;-59
2022/08/13 12:31:17;;;;;;;7.30;2.50;;;;;;;;;;6121173;23;20148;-59
2022/08/13 12:33:50;;;;;;;2.85;2.00;;;;;;;;;;6121307;23;20051;-59
2022/08/13 12:36:17;;;;;;;5.53;2.40;;;;;;;;;;6120220;23;20058;-59
2022/08/13 12:38:46;;;;;;;5.88;2.13;;;;;;;;;;6118633;23;20022;-65
2022/08/13 12:41:31;;;;;;;3.70;2.20;;;;;;;;;;6121353;23;20467;-65
2022/08/13 12:44:12;;;;;;;4.30;2.08;;;;;;;;;;6121250;23;20089;-65
2022/08/13 12:47:06;;;;;;;3.25;2.10;;;;;;;;;;6120920;23;20460;-66
2022/08/13 12:49:36;;;;;;;2.50;2.15;;;;;;;;;;6121295;23;20104;-66
2022/08/13 12:52:30;;;;;;;3.88;1.90;;;;;;;;;;6121054;23;20109;-66
2022/08/13 12:55:00;;;;;;;6.78;2.47;;;;;;;;;;6120132;23;20585;-50
2022/08/13 12:57:44;;;;;;;3.10;2.00;;;;;;;;;;6120334;23;20815;-70
2022/08/13 13:00:31;;;;;;;4.40;2.27;;;;;;;;;;6120881;23;20101;-71
2022/08/13 13:03:05;;;;;;;5.32;2.10;;;;;;;;;;6122582;23;20029;-71
2022/08/13 13:05:39;;;;;;;6.95;2.22;;;;;;;;;;6119761;23;20030;-71
2022/08/13 13:08:14;;;;;;;9.15;2.70;;;;;;;;;;6121943;23;20061;-70
2022/08/13 13:10:59;;;;;;;7.68;1.85;;;;;;;;;;6121425;23;20022;-69
2022/08/13 13:13:41;;;;;;;7.82;2.20;;;;;;;;;;6120274;23;20069;-61
2022/08/13 13:16:28;;;;;;;3.72;2.22;;;;;;;;;;6120813;23;20069;-70
2022/08/13 13:19:05;;;;;;;4.82;2.00;;;;;;;;;;6119667;23;20033;-69
2022/08/13 13:21:41;;;;;;;9.93;1.83;;;;;;;;;;6120960;23;20467;-70
2022/08/13 13:24:17;;;;;;;3.33;1.85;;;;;;;;;;6121120;23;20018;-70
2022/08/13 13:26:51;;;;;;;12.15;2.00;;;;;;;;;;6119345;23;20030;-70
2022/08/13 13:29:30;;;;;;;4.43;2.00;;;;;;;;;;6120523;23;20018;-70
2022/08/13 13:32:13;;;;;;;4.28;1.95;;;;;;;;;;6120706;23;20029;-70
2022/08/13 13:35:07;;;;;;;6.18;2.00;;;;;;;;;;6120680;23;20359;-62
2022/08/13 13:37:54;;;;;;;3.20;2.00;;;;;;;;;;6118295;23;20440;-62
2022/08/13 13:40:43;;;;;;;5.22;1.85;;;;;;;;;;6121140;23;20030;-62
2022/08/13 13:43:15;;;;;;;5.28;2.30;;;;;;;;;;6120841;23;20376;-62
2022/08/13 13:45:55;;;;;;;5.35;2.10;;;;;;;;;;6120702;23;20022;-62
2022/08/13 13:48:31;;;;;;;;;;;;;;;;;;6121583;23;20022;-62
2022/08/13 13:51:06;;;;;;;7.25;2.40;;;;;;;;;;6120589;23;19929;-59
2022/08/13 13:53:34;;;;;;;4.20;1.98;;;;;;;;;;6121549;23;20048;-59
2022/08/13 13:56:21;;;;;;;4.03;2.20;;;;;;;;;;6120126;23;20100;-59
2022/08/13 13:58:56;;;;;;;6.47;2.67;;;;;;;;;;6119983;23;20033;-59
2022/08/13 14:01:26;;;;;;;3.25;1.70;;;;;;;;;;6120160;23;20026;-60
2022/08/13 14:04:13;;;;;;;3.92;1.90;;;;;;;;;;6120509;23;20531;-60
2022/08/13 14:06:48;;;;;;;3.15;1.98;;;;;;;;;;6120219;23;20022;-60
2022/08/13 14:09:15;;;;;;;3.88;1.95;;;;;;;;;;6120938;23;20080;-60
2022/08/13 14:11:48;;;;;;;2.50;1.90;;;;;;;;;;6120575;23;20022;-60
2022/08/13 14:14:23;;;;;;;3.97;2.20;;;;;;;;;;6120384;23;20352;-47
2022/08/13 14:16:52;;;;;;;3.70;2.22;;;;;;;;;;6120013;23;20026;-47
2022/08/13 14:19:20;;;;;;;5.15;1.95;;;;;;;;;;6119693;23;20026;-51
2022/08/13 14:22:14;;;;;;;3.08;1.77;;;;;;;;;;6120036;23;20557;-50
2022/08/13 14:24:43;;;;;;;2.70;1.80;;;;;;;;;;6121240;23;20026;-50
2022/08/13 14:27:17;;;;;;;3.50;1.80;;;;;;;;;;6120436;23;20026;-52
2022/08/13 14:29:46;;;;;;;3.65;2.10;;;;;;;;;;6120465;23;20097;-60
2022/08/13 14:32:19;;;;;;;6.32;2.53;;;;;;;;;;6120370;23;20558;-44
2022/08/13 14:34:56;;;;;;;3.25;1.80;;;;;;;;;;6096581;23;20038;-45
2022/08/13 14:37:28;;;;;;;4.68;2.10;;;;;;;;;;6119625;23;20095;-45
2022/08/13 14:40:10;;;;;;;5.03;2.08;;;;;;;;;;6061781;23;20033;-45
2022/08/13 14:42:47;;;;;;;8.30;2.00;;;;;;;;;;6062074;23;20027;-46
2022/08/13 14:45:46;;;;;;;4.30;2.10;;;;;;;;;;6062081;23;20461;-46
2022/08/13 14:48:27;;;;;;;7.63;2.00;;;;;;;;;;6062554;23;20023;-55
2022/08/13 14:51:05;;;;;;;2.10;1.77;;;;;;;;;;6062115;23;20090;-58
2022/08/13 14:53:49;;;;;;;5.35;2.13;;;;;;;;;;6063297;23;20023;-57
2022/08/13 14:56:23;;;;;;;5.05;1.95;;;;;;;;;;6062668;23;20536;-58
2022/08/13 14:58:58;;;;;;;6.20;1.95;;;;;;;;;;6063151;23;20101;-54
2022/08/13 15:01:37;;;;;;;4.72;2.05;;;;;;;;;;6062768;23;20113;-56
2022/08/13 15:04:09;;;;;;;3.10;2.15;;;;;;;;;;6062118;23;20026;-57
2022/08/13 15:06:53;;;;;;;4.88;1.90;;;;;;;;;;6061749;23;20485;-60
2022/08/13 15:09:21;;;;;;;9.25;2.60;;;;;;;;;;6062204;23;20800;-58
2022/08/13 15:12:17;;;;;;;3.90;1.77;;;;;;;;;;6062088;23;20023;-61
2022/08/13 15:14:46;;;;;;;6.57;2.17;;;;;;;;;;6063279;23;20026;-61
2022/08/13 15:17:21;;;;;;;3.67;1.98;;;;;;;;;;6062409;23;20042;-62
2022/08/13 15:19:51;;;;;;;8.05;2.30;;;;;;;;;;6061729;23;20859;-61
2022/08/13 15:22:18;;;;;;;9.15;2.00;;;;;;;;;;6085063;23;20078;-60
2022/08/13 15:24:53;;;;;;;4.35;2.30;;;;;;;;;;6061155;23;20106;-61
2022/08/13 15:27:28;;;;;;;3.72;2.05;;;;;;;;;;6062282;23;20027;-63
2022/08/13 15:30:23;;;;;;;4.25;2.10;;;;;;;;;;6060899;23;20102;-46
2022/08/13 15:32:57;;;;;;;4.68;2.30;;;;;;;;;;6061796;23;20034;-45
2022/08/13 15:35:33;;;;;;;4.93;2.33;;;;;;;;;;6064033;23;20027;-44
2022/08/13 15:38:18;;;;;;;5.78;2.45;;;;;;;;;;6070832;23;20061;-46
2022/08/13 15:40:52;;;;;;;5.13;2.33;;;;;;;;;;6121476;23;20417;-45
2022/08/13 15:43:22;;;;;;;5.18;2.10;;;;;;;;;;6121844;23;20081;-45
2022/08/13 15:46:08;;;;;;;9.00;2.45;;;;;;;;;;6120039;23;20061;-58
2022/08/13 15:48:47;;;;;;;5.32;2.40;;;;;;;;;;6121275;23;20026;-59
2022/08/13 15:51:17;;;;;;;7.30;2.60;;;;;;;;;;6121322;23;20510;-58
2022/08/13 15:53:55;;;;;;;5.95;1.92;;;;;;;;;;6098925;23;20022;-59
2022/08/13 15:56:27;;;;;;;4.35;2.05;;;;;;;;;;6120804;23;20029;-59
2022/08/13 15:59:06;;;;;;;5.13;2.05;;;;;;;;;;6121334;23;20022;-58
2022/08/13 16:01:45;;;;;;;5.43;2.43;;;;;;;;;;6121622;23;20100;-59
2022/08/13 16:04:19;;;;;;;5.20;2.13;;;;;;;;;;6122007;23;20030;-59
2022/08/13 16:07:03;;;;;;;7.05;2.40;;;;;;;;;;6121216;23;20021;-66
2022/08/13 16:09:45;;;;;;;;;;;;;;;;;;6121792;23;20501;-57
2022/08/13 16:12:18;;;;;;;3.08;2.17;;;;;;;;;;6122232;23;19992;-56
2022/08/13 16:14:59;;;;;;;8.45;2.40;;;;;;;;;;6119669;23;20089;-56
2022/08/13 16:17:26;;;;;;;;;;;;;;;;;;6120742;23;20026;-57
2022/08/13 16:20:01;;;;;;;7.00;2.30;;;;;;;;;;6122094;23;19984;-55
2022/08/13 16:22:28;;;;;;;7.82;2.40;;;;;;;;;;6095627;23;20022;-57
2022/08/13 16:24:56;;;;;;;;;;;;;;;;;;6122412;23;20026;-70
2022/08/13 16:27:30;;;;;;;3.75;2.10;;;;;;;;;;6121948;23;20357;-56
2022/08/13 16:30:22;;;;;;;5.17;2.30;;;;;;;;;;6120877;23;20386;-56
2022/08/13 16:33:01;;;;;;;2.63;1.80;;;;;;;;;;6120429;23;20242;-57
2022/08/13 16:35:43;;;;;;;4.07;2.22;;;;;;;;;;6118704;23;20033;-56
2022/08/13 16:38:31;;;;;;;5.30;2.53;;;;;;;;;;6119046;23;20363;-58
2022/08/13 16:41:07;;;;;;;6.75;2.53;;;;;;;;;;6120762;23;20046;-54
2022/08/13 16:43:45;;;;;;;5.68;2.38;;;;;;;;;;6121391;23;20308;-58
2022/08/13 16:46:30;;;;;;;3.83;2.40;;;;;;;;;;6119538;23;20077;-70
2022/08/13 16:49:06;;;;;;;3.30;2.60;;;;;;;;;;6118673;23;20354;-69
2022/08/13 16:51:33;;;;;;;4.10;2.35;;;;;;;;;;6121457;23;20022;-69
2022/08/13 16:54:10;;;;;;;4.13;2.80;;;;;;;;;;6121222;23;20093;-69
2022/08/13 16:57:05;;;;;;;7.50;2.30;;;;;;;;;;6119532;23;20137;-69
2022/08/13 16:59:34;;;;;;;4.95;2.80;;;;;;;;;;6120479;23;20026;-70
2022/08/13 17:02:08;;;;;;;7.53;2.60;;;;;;;;;;6120451;23;20026;-61
2022/08/13 17:10:30;;;;;;;6.65;2.75;;;;;;;;;;6119784;23;20022;-70
2022/08/13 17:13:05;;;;;;;10.40;2.35;;;;;;;;;;6120250;23;20832;-70
2022/08/13 17:15:34;;;;;;;5.57;2.38;;;;;;;;;;6121523;23;20100;-70
2022/08/13 17:18:08;;;;;;;10.30;3.00;;;;;;;;;;6120634;23;20018;-69
2022/08/13 17:20:42;;;;;;;5.15;2.55;;;;;;;;;;6120900;23;20417;-60
2022/08/13 17:23:09;;;;;;;9.80;2.60;;;;;;;;;;6120785;23;20025;-69
2022/08/13 17:25:44;;;;;;;9.05;2.70;;;;;;;;;;6120201;23;20038;-60
2022/08/13 17:28:23;;;;;;;;;;;;;;;;;;6122094;23;20026;-60
2022/08/13 17:30:51;;;;;;;7.65;2.83;;;;;;;;;;6120566;23;20339;-60
2022/08/13 17:33:30;;;;;;;7.78;2.95;;;;;;;;;;6121352;23;20405;-60
2022/08/13 17:36:18;;;;;;;3.28;2.28;;;;;;;;;;6121844;23;20494;-59
2022/08/13 17:39:19;;;;;;;6.78;2.80;;;;;;;;;;6119753;23;20033;-55
2022/08/13 17:41:47;;;;;;;6.80;2.80;;;;;;;;;;6119833;23;20356;-71
2022/08/13 17:44:40;;;;;;;3.67;2.70;;;;;;;;;;6121359;23;20041;-67
2022/08/13 17:47:10;;;;;;;7.85;2.70;;;;;;;;;;6120699;23;20026;-67
2022/08/13 17:50:04;;;;;;;3.38;2.42;;;;;;;;;;6119613;23;20118;-67
2022/08/13 17:52:32;;;;;;;4.32;2.50;;;;;;;;;;6121154;23;20026;-67
2022/08/13 17:55:08;;;;;;;5.72;2.42;;;;;;;;;;6121845;23;20061;-67
2022/08/13 17:57:37;;;;;;;9.93;2.88;;;;;;;;;;6118788;23;20035;-67
2022/08/13 18:00:13;;;;;;;9.63;2.88;;;;;;;;;;6119777;23;20025;-60
2022/08/13 18:02:50;;;;;;;4.95;2.50;;;;;;;;;;6120633;23;20021;-44
2022/08/13 18:05:21;;;;;;;5.85;3.28;;;;;;;;;;6096371;23;20375;-44
2022/08/13 18:08:13;;;;;;;7.05;3.30;;;;;;;;;;6120778;23;20025;-44
2022/08/13 18:10:42;;;;;;;6.43;2.72;;;;;;;;;;6120189;23;20026;-46
2022/08/13 18:13:17;;;;;;;5.50;2.90;;;;;;;;;;6120984;23;20030;-44
2022/08/13 18:16:04;;;;;;;7.57;2.73;;;;;;;;;;6120520;23;20034;-44
2022/08/13 18:19:06;;;;;;;5.85;3.10;;;;;;;;;;6119445;23;20365;-60
2022/08/13 18:21:35;;;;;;;11.85;3.15;;;;;;;;;;6121414;23;20587;-48
2022/08/13 18:24:12;;;;;;;6.15;2.90;;;;;;;;;;6121223;23;20022;-47
2022/08/13 18:26:53;;;;;;;7.85;2.70;;;;;;;;;;6120341;23;20507;-45
2022/08/13 18:29:30;;;;;;;4.43;3.17;;;;;;;;;;6121146;23;20028;-48
2022/08/13 18:32:18;;;;;;;7.25;3.03;;;;;;;;;;6120867;23;20450;-47
2022/08/13 18:34:58;;;;;;;6.93;2.85;;;;;;;;;;6120949;23;20459;-48
2022/08/13 18:37:26;;;;;;;6.45;3.10;;;;;;;;;;6119617;23;20115;-61
2022/08/13 18:40:19;;;;;;;4.57;2.72;;;;;;;;;;6119841;23;20024;-44
2022/08/13 18:42:49;;;;;;;9.43;3.03;;;;;;;;;;6121279;23;20029;-47
2022/08/13 18:45:24;;;;;;;7.10;2.90;;;;;;;;;;6119996;23;20025;-45
2022/08/13 18:48:17;;;;;;;3.83;2.38;;;;;;;;;;6119601;23;20129;-46
2022/08/13 18:51:01;;;;;;;4.57;3.05;;;;;;;;;;6120856;23;20026;-45
2022/08/13 18:53:28;;;;;;;5.18;3.38;;;;;;;;;;6119564;23;20089;-45
2022/08/13 18:56:19;;;;;;;7.85;3.00;;;;;;;;;;6121580;23;20033;-67
2022/08/13 18:58:48;;;;;;;6.30;3.25;;;;;;;;;;6120907;23;20018;-46
2022/08/13 19:01:25;;;;;;;9.48;3.35;;;;;;;;;;6120920;23;20491;-51
2022/08/13 19:03:53;;;;;;;5.80;3.20;;;;;;;;;;6095673;23;20029;-47
2022/08/13 19:06:32;;;;;;;6.05;3.08;;;;;;;;;;6123570;23;20125;-49
2022/08/13 19:09:05;;;;;;;;;;;;;;;;;;6122754;23;20042;-47
2022/08/13 19:11:37;;;;;;;6.82;3.30;;;;;;;;;;6097288;23;20385;-44
2022/08/13 19:14:08;;;;;;;6.03;3.17;;;;;;;;;;6122265;23;20348;-45
2022/08/13 19:16:42;;;;;;;5.93;3.22;;;;;;;;;;6121924;23;20022;-46
2022/08/13 19:19:25;;;;;;;3.65;3.30;;;;;;;;;;6122725;23;20022;-61
2022/08/13 19:22:19;;;;;;;5.38;3.17;;;;;;;;;;6122065;23;20017;-60
2022/08/13 19:24:47;;;;;;;5.90;3.65;;;;;;;;;;6122587;23;20545;-60
2022/08/13 19:27:21;;;;;;;7.15;3.60;;;;;;;;;;6122287;23;20092;-60
2022/08/13 19:30:10;;;;;;;5.70;3.17;;;;;;;;;;6122624;23;20098;-60
2022/08/13 19:32:47;;;;;;;5.65;3.58;;;;;;;;;;6122240;23;20021;-61
2022/08/13 19:35:18;;;;;;;8.82;3.72;;;;;;;;;;6121897;23;20057;-66
2022/08/13 19:37:53;;;;;;;5.88;3.50;;;;;;;;;;6120779;23;20087;-65
2022/08/13 19:40:29;;;;;;;4.60;3.63;;;;;;;;;;6120979;23;20349;-65
2022/08/13 19:43:22;;;;;;;8.68;3.67;;;;;;;;;;6122005;23;20096;-65
2022/08/13 19:45:49;;;;;;;8.10;3.90;;;;;;;;;;6122126;23;20037;-65
2022/08/13 19:48:30;;;;;;;7.40;3.78;;;;;;;;;;6123046;23;20028;-65
2022/08/13 19:51:09;;;;;;;6.85;3.55;;;;;;;;;;6122333;23;20109;-65
2022/08/13 19:53:54;;;;;;;5.38;4.18;;;;;;;;;;6122285;23;20026;-52
2022/08/13 19:56:22;;;;;;;6.60;4.15;;;;;;;;;;6121662;23;20404;-53
2022/08/13 19:59:02;;;;;;;6.40;3.88;;;;;;;;;;6122285;23;20022;-54
2022/08/13 20:01:31;;;;;;;7.45;3.53;;;;;;;;;;6123225;23;20045;-52
2022/08/13 20:04:08;;;;;;;12.73;4.40;;;;;;;;;;6122659;23;20025;-51
2022/08/13 20:06:40;;;;;;;4.50;4.00;;;;;;;;;;6121572;23;20025;-52
2022/08/13 20:09:19;;;;;;;10.40;4.68;;;;;;;;;;6122425;23;20029;-54
2022/08/13 20:11:48;;;;;;;9.27;5.20;;;;;;;;;;6122932;23;20026;-43
2022/08/13 20:14:23;;;;;;;8.75;4.35;;;;;;;;;;6122273;23;20029;-51
2022/08/13 20:17:01;;;;;;;7.05;4.50;;;;;;;;;;6118164;23;20045;-65
2022/08/13 20:19:35;;;;;;;7.35;4.38;;;;;;;;;;6122660;23;20064;-64
2022/08/13 20:22:22;;;;;;;7.82;4.18;;;;;;;;;;6121388;23;20049;-65
2022/08/13 20:24:58;;;;;;;7.00;4.50;;;;;;;;;;6121835;23;20097;-63
2022/08/13 20:27:46;;;;;;;10.30;4.60;;;;;;;;;;6121311;23;20470;-63
2022/08/13 20:30:24;;;;;;;9.60;4.68;;;;;;;;;;6122363;23;20026;-64
2022/08/13 20:33:04;;;;;;;9.93;4.50;;;;;;;;;;6121977;23;20359;-44
2022/08/13 20:35:40;;;;;;;6.50;4.38;;;;;;;;;;6121158;23;20033;-55
2022/08/13 20:38:08;;;;;;;6.68;4.15;;;;;;;;;;6120782;23;20523;-56
2022/08/13 20:40:37;;;;;;;7.28;4.35;;;;;;;;;;6120485;23;20097;-53
2022/08/13 20:43:12;;;;;;;6.82;4.40;;;;;;;;;;6121429;23;20536;-54
2022/08/13 20:45:42;;;;;;;5.18;4.68;;;;;;;;;;6121840;23;20033;-55
2022/08/13 20:48:19;;;;;;;8.95;4.82;;;;;;;;;;6122261;23;20476;-55
2022/08/13 20:51:02;;;;;;;8.05;4.80;;;;;;;;;;6119393;23;20026;-66
2022/08/13 20:53:31;;;;;;;5.55;5.00;;;;;;;;;;6122805;23;20018;-60
2022/08/13 20:56:14;;;;;;;9.48;4.65;;;;;;;;;;6122289;23;20105;-60
2022/08/13 20:59:02;;;;;;;6.20;4.78;;;;;;;;;;6121313;23;20093;-60
2022/08/13 21:01:56;;;;;;;5.30;4.60;;;;;;;;;;6120258;23;20487;-60
2022/08/13 21:04:23;;;;;;;11.65;5.28;;;;;;;;;;6122536;23;20088;-63
2022/08/13 21:06:59;;;;;;;7.80;5.20;;;;;;;;;;6121252;23;20026;-60
2022/08/13 21:09:31;;;;;;;9.80;5.25;;;;;;;;;;6121407;23;20021;-65
2022/08/13 21:12:23;;;;;;;7.43;5.18;;;;;;;;;;6122601;23;20030;-44
2022/08/13 21:14:56;;;;;;;6.45;5.30;;;;;;;;;;6121636;23;20025;-43
2022/08/13 21:17:30;;;;;;;7.72;5.28;;;;;;;;;;6119602;23;20024;-46
2022/08/13 21:20:17;;;;;;;6.13;4.93;;;;;;;;;;6120047;23;20419;-46
2022/08/13 21:22:53;;;;;;;5.50;4.82;;;;;;;;;;6116925;23;20112;-45
2022/08/13 21:25:26;;;;;;;7.60;5.43;;;;;;;;;;6117110;23;20076;-45